createdAt,value
2019-03-03T00:00:15.784Z,5.64
2019-03-03T00:01:15.764Z,5.71
2019-03-03T00:02:15.740Z,5.81
2019-03-03T00:03:15.718Z,5.78
2019-03-03T00:04:15.700Z,5.68
2019-03-03T00:05:15.674Z,5.81
2019-03-03T00:06:15.652Z,5.82
2019-03-03T00:07:15.632Z,5.83
2019-03-03T00:08:15.606Z,5.81
2019-03-03T00:09:15.590Z,5.85
2019-03-03T00:10:15.567Z,5.89
2019-03-03T00:11:15.547Z,5.89
2019-03-03T00:12:15.518Z,5.89
2019-03-03T00:13:15.497Z,5.89
2019-03-03T00:14:15.472Z,5.94
2019-03-03T00:15:15.449Z,5.93
2019-03-03T00:16:15.430Z,6.03
2019-03-03T00:17:15.405Z,5.94
2019-03-03T00:18:15.386Z,6.00
2019-03-03T00:19:15.359Z,6.04
2019-03-03T00:20:15.333Z,6.03
2019-03-03T00:21:15.312Z,6.04
2019-03-03T00:22:15.292Z,6.09
2019-03-03T00:23:15.318Z,6.08
2019-03-03T00:24:15.247Z,6.09
2019-03-03T00:25:15.222Z,6.17
2019-03-03T00:26:15.200Z,6.12
2019-03-03T00:27:15.179Z,6.09
2019-03-03T00:28:15.154Z,6.04
2019-03-03T00:29:15.133Z,6.03
2019-03-03T00:30:15.126Z,6.08
2019-03-03T00:31:15.094Z,6.03
2019-03-03T00:32:15.070Z,6.03
2019-03-03T00:33:15.047Z,6.03
2019-03-03T00:34:15.024Z,6.09
2019-03-03T00:35:15.002Z,6.15
2019-03-03T00:36:14.975Z,6.04
2019-03-03T00:37:14.957Z,6.08
2019-03-03T00:38:14.932Z,6.12
2019-03-03T00:39:14.913Z,6.18
2019-03-03T00:40:14.889Z,6.19
2019-03-03T00:41:14.866Z,6.19
2019-03-03T00:42:14.857Z,6.18
2019-03-03T00:43:14.825Z,6.14
2019-03-03T00:44:14.802Z,6.14
2019-03-03T00:45:14.777Z,6.12
2019-03-03T00:46:14.755Z,6.19
2019-03-03T00:47:14.735Z,6.18
2019-03-03T00:48:14.713Z,6.28
2019-03-03T00:49:14.688Z,6.17
2019-03-03T00:50:14.668Z,6.17
2019-03-03T00:51:14.646Z,6.28
2019-03-03T00:52:14.617Z,6.30
2019-03-03T00:53:14.601Z,6.31
2019-03-03T00:54:14.582Z,6.30
2019-03-03T00:55:14.554Z,6.33
2019-03-03T00:56:14.535Z,6.31
2019-03-03T00:57:14.510Z,6.37
2019-03-03T00:58:14.485Z,6.43
2019-03-03T00:59:14.461Z,6.41
2019-03-03T01:00:14.440Z,6.38
2019-03-03T01:01:14.417Z,6.46
2019-03-03T01:02:14.399Z,6.51
2019-03-03T01:03:14.377Z,6.40
2019-03-03T01:04:14.355Z,6.44
2019-03-03T01:05:14.329Z,6.41
2019-03-03T01:06:14.309Z,6.44
2019-03-03T01:07:14.285Z,6.52
2019-03-03T01:08:14.269Z,6.48
2019-03-03T01:09:14.243Z,6.51
2019-03-03T01:10:14.229Z,6.44
2019-03-03T01:11:14.201Z,6.52
2019-03-03T01:12:14.174Z,6.52
2019-03-03T01:13:14.159Z,6.59
2019-03-03T01:14:14.129Z,6.41
2019-03-03T01:15:14.111Z,6.41
2019-03-03T01:16:14.139Z,6.41
2019-03-03T01:17:14.061Z,6.46
2019-03-03T01:18:14.044Z,6.46
2019-03-03T01:19:14.024Z,6.49
2019-03-03T01:20:13.999Z,6.49
2019-03-03T01:21:13.975Z,6.51
2019-03-03T01:22:13.957Z,6.43
2019-03-03T01:23:13.935Z,6.51
2019-03-03T01:24:13.910Z,6.49
2019-03-03T01:25:13.886Z,6.51
2019-03-03T01:26:13.862Z,6.54
2019-03-03T01:27:13.847Z,6.51
2019-03-03T01:28:13.820Z,6.46
2019-03-03T01:29:13.803Z,6.51
2019-03-03T01:30:13.776Z,6.52
2019-03-03T01:31:13.751Z,6.49
2019-03-03T01:32:13.732Z,6.55
2019-03-03T01:33:13.715Z,6.56
2019-03-03T01:34:13.688Z,6.62
2019-03-03T01:35:13.667Z,6.55
2019-03-03T01:36:13.644Z,6.56
2019-03-03T01:37:13.619Z,6.58
2019-03-03T01:38:13.597Z,6.67
2019-03-03T01:39:13.575Z,6.61
2019-03-03T01:40:13.554Z,6.59
2019-03-03T01:41:13.528Z,6.73
2019-03-03T01:42:13.511Z,6.61
2019-03-03T01:43:13.491Z,6.62
2019-03-03T01:44:13.465Z,6.55
2019-03-03T01:45:13.437Z,6.62
2019-03-03T01:46:13.418Z,6.61
2019-03-03T01:47:13.399Z,6.59
2019-03-03T01:48:13.380Z,6.46
2019-03-03T01:49:13.356Z,6.56
2019-03-03T01:50:13.330Z,6.51
2019-03-03T01:51:13.318Z,6.49
2019-03-03T01:52:13.286Z,6.49
2019-03-03T01:53:13.267Z,6.59
2019-03-03T01:54:13.242Z,6.54
2019-03-03T01:55:13.218Z,6.54
2019-03-03T01:56:13.198Z,6.54
2019-03-03T01:57:13.173Z,6.58
2019-03-03T01:58:13.160Z,6.56
2019-03-03T01:59:13.130Z,6.52
2019-03-03T02:00:13.112Z,6.55
2019-03-03T02:01:13.086Z,6.52
2019-03-03T02:02:13.069Z,6.52
2019-03-03T02:03:13.042Z,6.52
2019-03-03T02:04:13.024Z,6.58
2019-03-03T02:05:13.002Z,6.56
2019-03-03T02:06:12.976Z,6.61
2019-03-03T02:07:12.956Z,6.54
2019-03-03T02:08:12.940Z,6.54
2019-03-03T02:09:12.910Z,6.48
2019-03-03T02:10:12.897Z,6.56
2019-03-03T02:11:12.864Z,6.46
2019-03-03T02:12:12.849Z,6.51
2019-03-03T02:13:12.819Z,6.52
2019-03-03T02:14:12.800Z,6.52
2019-03-03T02:15:12.779Z,6.51
2019-03-03T02:16:12.756Z,6.54
2019-03-03T02:17:12.736Z,6.51
2019-03-03T02:18:12.715Z,6.43
2019-03-03T02:19:12.688Z,6.43
2019-03-03T02:20:12.664Z,6.46
2019-03-03T02:21:12.644Z,6.49
2019-03-03T02:22:12.622Z,6.55
2019-03-03T02:23:12.606Z,6.51
2019-03-03T02:24:12.575Z,6.56
2019-03-03T02:25:12.552Z,6.49
2019-03-03T02:26:12.540Z,6.51
2019-03-03T02:27:12.518Z,6.44
2019-03-03T02:28:12.491Z,6.46
2019-03-03T02:29:12.467Z,6.56
2019-03-03T02:30:12.443Z,6.51
2019-03-03T02:31:12.426Z,6.59
2019-03-03T02:32:12.405Z,6.49
2019-03-03T02:33:12.378Z,6.54
2019-03-03T02:34:12.360Z,6.58
2019-03-03T02:35:12.336Z,6.58
2019-03-03T02:36:12.318Z,6.55
2019-03-03T02:37:12.290Z,6.61
2019-03-03T02:38:12.269Z,6.69
2019-03-03T02:39:12.249Z,6.62
2019-03-03T02:40:12.220Z,6.71
2019-03-03T02:41:12.208Z,6.73
2019-03-03T02:42:12.178Z,6.74
2019-03-03T02:43:12.159Z,6.73
2019-03-03T02:44:12.137Z,6.79
2019-03-03T02:45:12.116Z,6.85
2019-03-03T02:46:12.094Z,6.88
2019-03-03T02:47:12.073Z,6.89
2019-03-03T02:48:12.047Z,6.95
2019-03-03T02:49:12.023Z,6.88
2019-03-03T02:50:12.006Z,6.92
2019-03-03T02:51:11.980Z,6.87
2019-03-03T02:52:11.962Z,6.91
2019-03-03T02:53:11.940Z,7.05
2019-03-03T02:54:11.916Z,7.02
2019-03-03T02:55:11.896Z,6.94
2019-03-03T02:56:11.867Z,6.99
2019-03-03T02:57:11.849Z,6.97
2019-03-03T02:58:11.829Z,7.07
2019-03-03T02:59:11.803Z,7.03
2019-03-03T03:00:11.796Z,7.02
2019-03-03T03:01:11.762Z,7.07
2019-03-03T03:02:11.736Z,7.05
2019-03-03T03:03:11.717Z,7.09
2019-03-03T03:04:11.695Z,7.09
2019-03-03T03:05:11.670Z,7.02
2019-03-03T03:06:11.648Z,6.98
2019-03-03T03:07:11.629Z,7.06
2019-03-03T03:08:11.602Z,7.06
2019-03-03T03:09:11.585Z,7.10
2019-03-03T03:10:11.561Z,7.09
2019-03-03T03:11:11.540Z,7.07
2019-03-03T03:12:11.521Z,7.05
2019-03-03T03:13:11.498Z,6.99
2019-03-03T03:14:11.471Z,7.05
2019-03-03T03:15:11.454Z,7.13
2019-03-03T03:16:11.430Z,7.05
2019-03-03T03:17:11.405Z,7.02
2019-03-03T03:18:11.380Z,7.02
2019-03-03T03:19:11.368Z,6.99
2019-03-03T03:20:11.336Z,6.99
2019-03-03T03:21:11.320Z,7.06
2019-03-03T03:22:11.296Z,7.09
2019-03-03T03:23:11.276Z,7.07
2019-03-03T03:24:11.341Z,7.02
2019-03-03T03:25:11.231Z,7.06
2019-03-03T03:26:11.209Z,7.02
2019-03-03T03:27:11.183Z,6.98
2019-03-03T03:28:11.161Z,7.03
2019-03-03T03:29:11.139Z,7.06
2019-03-03T03:30:11.120Z,7.07
2019-03-03T03:31:11.121Z,7.03
2019-03-03T03:32:11.079Z,7.13
2019-03-03T03:33:11.066Z,7.05
2019-03-03T03:34:11.066Z,7.05
2019-03-03T03:35:11.005Z,7.07
2019-03-03T03:36:10.981Z,7.03
2019-03-03T03:37:10.968Z,7.05
2019-03-03T03:38:10.936Z,7.03
2019-03-03T03:39:10.935Z,7.03
2019-03-03T03:40:10.896Z,7.09
2019-03-03T03:41:10.878Z,6.98
2019-03-03T03:42:10.851Z,7.02
2019-03-03T03:43:10.826Z,7.05
2019-03-03T03:44:10.805Z,7.02
2019-03-03T03:45:10.785Z,6.98
2019-03-03T03:46:10.766Z,6.99
2019-03-03T03:47:10.740Z,6.99
2019-03-03T03:48:10.733Z,6.99
2019-03-03T03:49:10.698Z,7.02
2019-03-03T03:50:10.673Z,7.06
2019-03-03T03:51:10.650Z,6.99
2019-03-03T03:52:10.629Z,7.05
2019-03-03T03:53:10.608Z,7.03
2019-03-03T03:54:10.585Z,7.10
2019-03-03T03:55:10.561Z,7.20
2019-03-03T03:56:10.540Z,7.13
2019-03-03T03:57:10.516Z,7.17
2019-03-03T03:58:10.491Z,7.13
2019-03-03T03:59:10.474Z,7.12
2019-03-03T04:00:10.450Z,7.10
2019-03-03T04:01:10.430Z,7.24
2019-03-03T04:02:10.407Z,7.24
2019-03-03T04:03:10.386Z,7.17
2019-03-03T04:04:10.363Z,7.28
2019-03-03T04:05:10.340Z,7.23
2019-03-03T04:06:10.363Z,7.23
2019-03-03T04:07:10.297Z,7.27
2019-03-03T04:08:10.276Z,7.25
2019-03-03T04:09:10.252Z,7.25
2019-03-03T04:10:10.231Z,7.24
2019-03-03T04:11:10.205Z,7.28
2019-03-03T04:12:10.183Z,7.27
2019-03-03T04:13:10.162Z,7.28
2019-03-03T04:14:10.137Z,7.25
2019-03-03T04:15:10.127Z,7.27
2019-03-03T04:16:10.102Z,7.24
2019-03-03T04:17:10.070Z,7.21
2019-03-03T04:18:10.049Z,7.23
2019-03-03T04:19:10.030Z,7.21
2019-03-03T04:20:10.008Z,7.23
2019-03-03T04:21:09.987Z,7.27
2019-03-03T04:22:09.966Z,7.24
2019-03-03T04:23:09.944Z,7.17
2019-03-03T04:24:09.920Z,7.20
2019-03-03T04:25:09.899Z,7.28
2019-03-03T04:26:09.875Z,7.24
2019-03-03T04:27:09.848Z,7.20
2019-03-03T04:28:09.831Z,7.24
2019-03-03T04:29:09.809Z,7.21
2019-03-03T04:30:09.794Z,7.23
2019-03-03T04:31:09.766Z,7.24
2019-03-03T04:32:09.744Z,7.12
2019-03-03T04:33:09.718Z,7.13
2019-03-03T04:34:09.703Z,7.13
2019-03-03T04:35:09.675Z,7.10
2019-03-03T04:36:09.650Z,7.27
2019-03-03T04:37:09.639Z,7.17
2019-03-03T04:38:09.610Z,7.27
2019-03-03T04:39:09.588Z,7.25
2019-03-03T04:40:09.568Z,7.24
2019-03-03T04:41:09.544Z,7.32
2019-03-03T04:42:09.516Z,7.43
2019-03-03T04:43:09.496Z,7.39
2019-03-03T04:44:09.480Z,7.42
2019-03-03T04:45:09.456Z,7.39
2019-03-03T04:46:09.430Z,7.42
2019-03-03T04:47:09.409Z,7.39
2019-03-03T04:48:09.386Z,7.39
2019-03-03T04:49:09.362Z,7.49
2019-03-03T04:50:09.344Z,7.42
2019-03-03T04:51:09.323Z,7.49
2019-03-03T04:52:09.300Z,7.46
2019-03-03T04:53:09.275Z,7.57
2019-03-03T04:54:09.257Z,7.48
2019-03-03T04:55:09.232Z,7.53
2019-03-03T04:56:09.212Z,7.43
2019-03-03T04:57:09.188Z,7.52
2019-03-03T04:58:09.166Z,7.52
2019-03-03T04:59:09.149Z,7.46
2019-03-03T05:00:09.123Z,7.48
2019-03-03T05:01:09.102Z,7.48
2019-03-03T05:02:09.081Z,7.50
2019-03-03T05:03:09.058Z,7.55
2019-03-03T05:04:09.038Z,7.58
2019-03-03T05:05:09.015Z,7.53
2019-03-03T05:06:08.991Z,7.60
2019-03-03T05:07:08.968Z,7.63
2019-03-03T05:08:08.946Z,7.64
2019-03-03T05:09:08.925Z,7.60
2019-03-03T05:10:08.906Z,7.61
2019-03-03T05:11:08.884Z,7.63
2019-03-03T05:12:08.859Z,7.67
2019-03-03T05:13:08.835Z,7.64
2019-03-03T05:14:08.814Z,7.71
2019-03-03T05:15:08.791Z,7.75
2019-03-03T05:16:08.773Z,7.82
2019-03-03T05:17:08.849Z,7.82
2019-03-03T05:18:08.735Z,7.80
2019-03-03T05:19:08.713Z,7.82
2019-03-03T05:20:08.688Z,7.80
2019-03-03T05:21:08.664Z,7.82
2019-03-03T05:22:08.643Z,7.87
2019-03-03T05:23:08.720Z,7.87
2019-03-03T05:24:08.595Z,7.92
2019-03-03T05:25:08.577Z,7.87
2019-03-03T05:26:08.549Z,8.01
2019-03-03T05:27:08.532Z,7.85
2019-03-03T05:28:08.507Z,7.86
2019-03-03T05:29:08.487Z,7.90
2019-03-03T05:30:08.463Z,7.85
2019-03-03T05:31:08.444Z,8.04
2019-03-03T05:32:08.429Z,8.01
2019-03-03T05:33:08.401Z,8.00
2019-03-03T05:34:08.380Z,7.97
2019-03-03T05:35:08.360Z,8.01
2019-03-03T05:36:08.337Z,7.97
2019-03-03T05:37:08.316Z,7.95
2019-03-03T05:38:08.288Z,8.02
2019-03-03T05:39:08.271Z,8.07
2019-03-03T05:40:08.249Z,8.08
2019-03-03T05:41:08.223Z,8.12
2019-03-03T05:42:08.215Z,8.16
2019-03-03T05:43:08.185Z,8.15
2019-03-03T05:44:08.159Z,8.07
2019-03-03T05:45:08.146Z,8.10
2019-03-03T05:46:08.117Z,8.10
2019-03-03T05:47:08.095Z,8.18
2019-03-03T05:48:08.079Z,8.12
2019-03-03T05:49:08.053Z,8.19
2019-03-03T05:50:08.027Z,8.23
2019-03-03T05:51:08.011Z,8.16
2019-03-03T05:52:07.987Z,8.20
2019-03-03T05:53:07.963Z,8.19
2019-03-03T05:54:07.942Z,8.22
2019-03-03T05:55:07.923Z,8.26
2019-03-03T05:56:07.901Z,8.22
2019-03-03T05:57:07.880Z,8.19
2019-03-03T05:58:07.856Z,8.30
2019-03-03T05:59:07.831Z,8.22
2019-03-03T06:00:07.815Z,8.30
2019-03-03T06:01:07.797Z,8.33
2019-03-03T06:02:07.771Z,8.26
2019-03-03T06:03:07.739Z,8.25
2019-03-03T06:04:07.724Z,8.23
2019-03-03T06:05:07.701Z,8.34
2019-03-03T06:06:07.682Z,8.30
2019-03-03T06:07:07.657Z,8.23
2019-03-03T06:08:07.638Z,8.37
2019-03-03T06:09:07.619Z,8.41
2019-03-03T06:10:07.596Z,8.37
2019-03-03T06:11:07.572Z,8.37
2019-03-03T06:12:07.553Z,8.36
2019-03-03T06:13:07.533Z,8.34
2019-03-03T06:14:07.514Z,8.45
2019-03-03T06:15:07.491Z,8.36
2019-03-03T06:16:07.467Z,8.50
2019-03-03T06:17:07.447Z,8.40
2019-03-03T06:18:07.423Z,8.36
2019-03-03T06:19:07.400Z,8.50
2019-03-03T06:20:07.381Z,8.37
2019-03-03T06:21:07.355Z,8.34
2019-03-03T06:22:07.342Z,8.44
2019-03-03T06:23:07.315Z,8.36
2019-03-03T06:24:07.293Z,8.50
2019-03-03T06:25:07.271Z,8.48
2019-03-03T06:26:07.254Z,8.48
2019-03-03T06:27:07.231Z,8.48
2019-03-03T06:28:07.206Z,8.47
2019-03-03T06:29:07.188Z,8.48
2019-03-03T06:30:07.166Z,8.58
2019-03-03T06:31:07.145Z,8.56
2019-03-03T06:32:07.126Z,8.55
2019-03-03T06:33:07.101Z,8.56
2019-03-03T06:34:07.080Z,8.59
2019-03-03T06:35:07.056Z,8.66
2019-03-03T06:36:07.037Z,8.63
2019-03-03T06:37:07.015Z,8.66
2019-03-03T06:38:06.996Z,8.73
2019-03-03T06:39:06.970Z,8.77
2019-03-03T06:40:06.951Z,8.83
2019-03-03T06:41:06.934Z,8.77
2019-03-03T06:42:06.908Z,8.80
2019-03-03T06:43:06.884Z,8.79
2019-03-03T06:44:06.864Z,8.77
2019-03-03T06:45:06.942Z,8.91
2019-03-03T06:46:06.825Z,8.87
2019-03-03T06:47:06.802Z,8.95
2019-03-03T06:48:06.790Z,8.92
2019-03-03T06:49:06.758Z,9.01
2019-03-03T06:50:06.736Z,8.98
2019-03-03T06:51:06.716Z,9.01
2019-03-03T06:52:06.692Z,8.98
2019-03-03T06:53:06.682Z,9.04
2019-03-03T06:54:06.652Z,8.96
2019-03-03T06:55:06.632Z,9.08
2019-03-03T06:56:06.610Z,9.15
2019-03-03T06:57:06.586Z,9.10
2019-03-03T06:58:06.570Z,9.11
2019-03-03T06:59:06.543Z,9.18
2019-03-03T07:00:06.524Z,9.15
2019-03-03T07:01:06.505Z,9.18
2019-03-03T07:02:06.481Z,9.21
2019-03-03T07:03:06.461Z,9.24
2019-03-03T07:04:06.446Z,9.28
2019-03-03T07:05:06.418Z,9.23
2019-03-03T07:06:06.390Z,9.26
2019-03-03T07:07:06.374Z,9.21
2019-03-03T07:08:06.350Z,9.28
2019-03-03T07:09:06.330Z,9.35
2019-03-03T07:10:06.312Z,9.32
2019-03-03T07:11:06.291Z,9.31
2019-03-03T07:12:06.266Z,9.33
2019-03-03T07:13:06.244Z,9.40
2019-03-03T07:14:06.224Z,9.38
2019-03-03T07:15:06.204Z,9.39
2019-03-03T07:16:06.193Z,9.46
2019-03-03T07:17:06.164Z,9.39
2019-03-03T07:18:06.145Z,9.36
2019-03-03T07:19:06.122Z,9.38
2019-03-03T07:20:06.102Z,9.46
2019-03-03T07:21:06.081Z,9.48
2019-03-03T07:22:06.179Z,9.48
2019-03-03T07:23:06.036Z,9.54
2019-03-03T07:24:06.015Z,9.51
2019-03-03T07:25:05.997Z,9.58
2019-03-03T07:26:05.976Z,9.54
2019-03-03T07:27:05.951Z,9.61
2019-03-03T07:28:05.938Z,9.71
2019-03-03T07:29:05.913Z,9.65
2019-03-03T07:30:05.890Z,9.75
2019-03-03T07:31:05.866Z,9.76
2019-03-03T07:32:05.849Z,9.81
2019-03-03T07:33:05.821Z,9.86
2019-03-03T07:34:05.807Z,9.84
2019-03-03T07:35:05.783Z,9.78
2019-03-03T07:36:05.759Z,9.81
2019-03-03T07:37:05.741Z,9.78
2019-03-03T07:38:05.719Z,9.83
2019-03-03T07:39:05.699Z,9.84
2019-03-03T07:40:05.685Z,9.83
2019-03-03T07:41:05.661Z,9.90
2019-03-03T07:42:05.638Z,9.89
2019-03-03T07:43:05.612Z,10.02
2019-03-03T07:44:05.595Z,9.96
2019-03-03T07:45:05.571Z,10.08
2019-03-03T07:46:05.553Z,10.15
2019-03-03T07:47:05.530Z,10.11
2019-03-03T07:48:05.514Z,10.20
2019-03-03T07:49:05.488Z,10.25
2019-03-03T07:50:05.471Z,10.22
2019-03-03T07:51:05.452Z,10.27
2019-03-03T07:52:05.429Z,10.25
2019-03-03T07:53:05.408Z,10.25
2019-03-03T07:54:05.386Z,10.27
2019-03-03T07:55:05.370Z,10.33
2019-03-03T07:56:05.345Z,10.36
2019-03-03T07:57:05.322Z,10.45
2019-03-03T07:58:05.312Z,10.40
2019-03-03T07:59:05.284Z,10.42
2019-03-03T08:00:05.264Z,10.52
2019-03-03T08:01:05.239Z,10.48
2019-03-03T08:02:05.223Z,10.48
2019-03-03T08:03:05.199Z,10.59
2019-03-03T08:04:05.183Z,10.52
2019-03-03T08:05:05.158Z,10.63
2019-03-03T08:06:05.140Z,10.64
2019-03-03T08:07:05.123Z,10.61
2019-03-03T08:08:05.102Z,10.63
2019-03-03T08:09:05.083Z,10.64
2019-03-03T08:10:05.060Z,10.66
2019-03-03T08:11:05.037Z,10.74
2019-03-03T08:12:05.017Z,10.76
2019-03-03T08:13:09.271Z,10.70
2019-03-03T08:14:04.979Z,10.71
2019-03-03T08:15:04.957Z,10.60
2019-03-03T08:16:04.939Z,10.64
2019-03-03T08:17:04.915Z,10.74
2019-03-03T08:18:04.895Z,10.71
2019-03-03T08:19:04.876Z,10.60
2019-03-03T08:20:04.853Z,10.79
2019-03-03T08:21:04.834Z,10.81
2019-03-03T08:22:04.824Z,10.71
2019-03-03T08:23:04.800Z,10.82
2019-03-03T08:24:04.771Z,10.92
2019-03-03T08:25:04.753Z,10.89
2019-03-03T08:26:04.736Z,11.00
2019-03-03T08:27:04.715Z,10.91
2019-03-03T08:28:04.702Z,10.97
2019-03-03T08:29:04.673Z,10.97
2019-03-03T08:30:04.654Z,11.03
2019-03-03T08:31:04.631Z,11.02
2019-03-03T08:32:04.611Z,11.07
2019-03-03T08:33:04.594Z,11.04
2019-03-03T08:34:04.568Z,11.00
2019-03-03T08:35:04.555Z,11.03
2019-03-03T08:36:04.535Z,11.14
2019-03-03T08:37:04.513Z,11.15
2019-03-03T08:38:04.499Z,11.14
2019-03-03T08:39:04.475Z,11.15
2019-03-03T08:40:04.453Z,11.17
2019-03-03T08:41:04.434Z,11.24
2019-03-03T08:42:04.412Z,11.19
2019-03-03T08:43:04.393Z,11.25
2019-03-03T08:44:04.373Z,11.24
2019-03-03T08:45:04.358Z,11.18
2019-03-03T08:46:04.334Z,11.21
2019-03-03T08:47:04.314Z,11.32
2019-03-03T08:48:04.300Z,11.37
2019-03-03T08:49:04.270Z,11.39
2019-03-03T08:50:04.252Z,11.39
2019-03-03T08:51:04.235Z,11.51
2019-03-03T08:52:04.212Z,11.44
2019-03-03T08:53:04.197Z,11.47
2019-03-03T08:54:04.173Z,11.49
2019-03-03T08:55:04.155Z,11.36
2019-03-03T08:56:04.143Z,11.43
2019-03-03T08:57:04.115Z,11.42
2019-03-03T08:58:04.094Z,11.46
2019-03-03T08:59:04.079Z,11.47
2019-03-03T09:00:04.055Z,11.33
2019-03-03T09:01:04.035Z,11.33
2019-03-03T09:02:04.019Z,11.49
2019-03-03T09:03:04.010Z,11.46
2019-03-03T09:04:03.978Z,11.49
2019-03-03T09:05:03.958Z,11.51
2019-03-03T09:06:03.938Z,11.44
2019-03-03T09:07:03.925Z,11.43
2019-03-03T09:08:03.907Z,11.32
2019-03-03T09:09:03.893Z,11.47
2019-03-03T09:10:03.860Z,11.52
2019-03-03T09:11:03.845Z,11.55
2019-03-03T09:12:03.820Z,11.49
2019-03-03T09:13:03.804Z,11.47
2019-03-03T09:14:03.783Z,11.40
2019-03-03T09:15:03.767Z,11.47
2019-03-03T09:16:03.746Z,11.51
2019-03-03T09:17:03.721Z,11.28
2019-03-03T09:18:03.710Z,11.25
2019-03-03T09:19:03.686Z,11.10
2019-03-03T09:20:03.664Z,11.03
2019-03-03T09:21:03.645Z,11.04
2019-03-03T09:22:04.746Z,10.91
2019-03-03T09:23:03.608Z,10.91
2019-03-03T09:24:03.591Z,10.99
2019-03-03T09:25:03.563Z,10.94
2019-03-03T09:26:03.546Z,10.89
2019-03-03T09:27:03.530Z,10.92
2019-03-03T09:28:03.520Z,10.97
2019-03-03T09:29:03.486Z,10.97
2019-03-03T09:30:03.468Z,11.02
2019-03-03T09:31:03.447Z,11.00
2019-03-03T09:32:03.428Z,11.07
2019-03-03T09:33:03.410Z,11.11
2019-03-03T09:34:03.391Z,11.09
2019-03-03T09:35:03.366Z,11.25
2019-03-03T09:36:03.349Z,11.22
2019-03-03T09:37:03.329Z,11.22
2019-03-03T09:38:03.312Z,11.18
2019-03-03T09:39:03.289Z,11.10
2019-03-03T09:40:09.503Z,11.14
2019-03-03T09:41:03.250Z,11.21
2019-03-03T09:42:03.230Z,11.25
2019-03-03T09:43:03.212Z,11.21
2019-03-03T09:44:03.191Z,11.24
2019-03-03T09:45:03.175Z,11.39
2019-03-03T09:46:03.147Z,11.36
2019-03-03T09:47:03.132Z,11.36
2019-03-03T09:48:03.117Z,11.51
2019-03-03T09:49:03.128Z,11.40
2019-03-03T09:50:03.066Z,11.47
2019-03-03T09:51:03.053Z,11.55
2019-03-03T09:52:03.035Z,11.55
2019-03-03T09:53:03.025Z,11.57
2019-03-03T09:54:02.999Z,11.58
2019-03-03T09:55:02.970Z,11.62
2019-03-03T09:56:02.958Z,11.67
2019-03-03T09:57:02.928Z,11.49
2019-03-03T09:58:02.910Z,11.51
2019-03-03T09:59:02.892Z,11.62
2019-03-03T10:00:02.888Z,11.62
2019-03-03T10:01:02.852Z,11.73
2019-03-03T10:02:02.845Z,11.76
2019-03-03T10:03:02.815Z,11.76
2019-03-03T10:04:02.793Z,11.80
2019-03-03T10:05:02.770Z,11.86
2019-03-03T10:06:02.756Z,11.76
2019-03-03T10:07:02.735Z,11.78
2019-03-03T10:08:02.715Z,11.76
2019-03-03T10:09:02.695Z,11.76
2019-03-03T10:10:02.675Z,11.75
2019-03-03T10:11:02.655Z,11.78
2019-03-03T10:12:02.631Z,11.76
2019-03-03T10:13:02.617Z,11.75
2019-03-03T10:14:02.592Z,11.72
2019-03-03T10:15:02.580Z,11.65
2019-03-03T10:16:02.558Z,11.73
2019-03-03T10:17:02.536Z,11.75
2019-03-03T10:18:02.518Z,11.80
2019-03-03T10:19:07.144Z,11.90
2019-03-03T10:20:02.480Z,11.76
2019-03-03T10:21:03.264Z,11.75
2019-03-03T10:22:02.442Z,11.79
2019-03-03T10:23:02.416Z,11.76
2019-03-03T10:24:02.406Z,11.82
2019-03-03T10:25:02.379Z,11.95
2019-03-03T10:26:02.360Z,11.82
2019-03-03T10:27:02.337Z,11.79
2019-03-03T10:28:02.323Z,11.79
2019-03-03T10:29:02.300Z,11.83
2019-03-03T10:30:02.283Z,11.88
2019-03-03T10:31:02.261Z,11.91
2019-03-03T10:32:02.239Z,11.78
2019-03-03T10:33:02.220Z,11.86
2019-03-03T10:34:02.208Z,11.91
2019-03-03T10:35:02.179Z,11.79
2019-03-03T10:36:02.169Z,11.78
2019-03-03T10:37:02.140Z,11.67
2019-03-03T10:38:02.131Z,11.65
2019-03-03T10:39:02.182Z,11.55
2019-03-03T10:40:02.099Z,11.42
2019-03-03T10:41:02.073Z,11.35
2019-03-03T10:42:02.044Z,11.24
2019-03-03T10:43:02.025Z,11.15
2019-03-03T10:44:02.007Z,11.24
2019-03-03T10:45:01.982Z,11.22
2019-03-03T10:46:01.967Z,11.33
2019-03-03T10:47:01.943Z,11.33
2019-03-03T10:48:01.927Z,11.32
2019-03-03T10:49:01.907Z,11.37
2019-03-03T10:50:01.892Z,11.33
2019-03-03T10:51:01.875Z,11.47
2019-03-03T10:52:01.848Z,11.47
2019-03-03T10:53:01.831Z,11.49
2019-03-03T10:54:01.818Z,11.54
2019-03-03T10:55:01.798Z,11.61
2019-03-03T10:56:01.772Z,11.64
2019-03-03T10:57:01.754Z,11.67
2019-03-03T10:58:01.738Z,11.65
2019-03-03T10:59:01.711Z,11.64
2019-03-03T11:00:01.700Z,11.65
2019-03-03T11:01:01.678Z,11.60
2019-03-03T11:02:01.655Z,11.60
2019-03-03T11:03:02.648Z,11.57
2019-03-03T11:04:01.615Z,11.43
2019-03-03T11:05:01.594Z,11.39
2019-03-03T11:06:01.573Z,11.33
2019-03-03T11:07:01.558Z,11.37
2019-03-03T11:08:01.536Z,11.37
2019-03-03T11:09:01.521Z,11.33
2019-03-03T11:10:01.496Z,11.36
2019-03-03T11:11:01.479Z,11.36
2019-03-03T11:12:01.459Z,11.44
2019-03-03T11:13:01.467Z,11.44
2019-03-03T11:14:01.479Z,11.40
2019-03-03T11:15:01.401Z,11.49
2019-03-03T11:16:01.377Z,11.60
2019-03-03T11:17:01.366Z,11.57
2019-03-03T11:18:01.341Z,11.61
2019-03-03T11:19:01.322Z,11.64
2019-03-03T11:20:01.310Z,11.79
2019-03-03T11:21:01.286Z,11.80
2019-03-03T11:22:01.263Z,11.75
2019-03-03T11:23:01.237Z,11.79
2019-03-03T11:24:01.238Z,11.85
2019-03-03T11:25:01.203Z,11.94
2019-03-03T11:26:01.180Z,11.88
2019-03-03T11:27:01.162Z,11.96
2019-03-03T11:28:01.144Z,11.99
2019-03-03T11:29:01.123Z,12.04
2019-03-03T11:30:01.111Z,11.98
2019-03-03T11:31:01.084Z,12.04
2019-03-03T11:32:01.061Z,12.02
2019-03-03T11:33:01.046Z,12.02
2019-03-03T11:34:01.023Z,11.95
2019-03-03T11:35:01.012Z,11.94
2019-03-03T11:36:00.988Z,11.99
2019-03-03T11:37:00.969Z,11.95
2019-03-03T11:38:00.953Z,12.04
2019-03-03T11:39:00.928Z,11.91
2019-03-03T11:40:00.912Z,11.94
2019-03-03T11:41:00.899Z,12.04
2019-03-03T11:42:00.872Z,11.98
2019-03-03T11:43:00.854Z,11.96
2019-03-03T11:44:00.834Z,11.91
2019-03-03T11:45:00.816Z,11.95
2019-03-03T11:46:00.793Z,12.01
2019-03-03T11:47:00.771Z,11.99
2019-03-03T11:48:04.237Z,12.14
2019-03-03T11:49:00.735Z,12.04
2019-03-03T11:50:00.716Z,12.17
2019-03-03T11:51:00.697Z,12.17
2019-03-03T11:52:00.686Z,12.19
2019-03-03T11:53:00.661Z,12.20
2019-03-03T11:54:00.642Z,12.19
2019-03-03T11:55:00.973Z,12.23
2019-03-03T11:56:00.600Z,12.14
2019-03-03T11:57:00.580Z,12.04
2019-03-03T11:58:00.564Z,12.05
2019-03-03T11:59:00.551Z,11.94
2019-03-03T12:00:00.525Z,11.98
2019-03-03T12:01:00.512Z,11.95
2019-03-03T12:02:00.494Z,11.91
2019-03-03T12:03:00.465Z,11.91
2019-03-03T12:04:00.446Z,11.85
2019-03-03T12:05:00.492Z,11.94
2019-03-03T12:06:00.408Z,11.90
2019-03-03T12:07:00.390Z,11.91
2019-03-03T12:08:00.370Z,11.94
2019-03-03T12:09:00.355Z,11.91
2019-03-03T12:10:00.330Z,11.91
2019-03-03T12:11:00.315Z,11.91
2019-03-03T12:12:00.295Z,11.88
2019-03-03T12:13:00.276Z,11.80
2019-03-03T12:14:00.252Z,11.79
2019-03-03T12:15:00.315Z,11.76
2019-03-03T12:16:00.217Z,11.67
2019-03-03T12:17:00.194Z,11.69
2019-03-03T12:18:00.174Z,11.72
2019-03-03T12:19:01.703Z,11.64
2019-03-03T12:20:00.241Z,11.65
2019-03-03T12:21:00.118Z,11.51
2019-03-03T12:22:00.101Z,11.43
2019-03-03T12:23:00.078Z,11.47
2019-03-03T12:24:00.062Z,11.29
2019-03-03T12:25:00.042Z,11.19
2019-03-03T12:26:00.022Z,11.19
2019-03-03T12:27:00.002Z,11.21
2019-03-03T12:27:59.991Z,11.09
2019-03-03T12:28:59.959Z,10.99
2019-03-03T12:29:59.946Z,11.06
2019-03-03T12:30:59.932Z,10.99
2019-03-03T12:31:59.908Z,10.91
2019-03-03T12:32:59.887Z,11.04
2019-03-03T12:33:59.865Z,10.99
2019-03-03T12:34:59.842Z,10.86
2019-03-03T12:35:59.828Z,10.89
2019-03-03T12:36:59.802Z,10.86
2019-03-03T12:37:59.782Z,11.04
2019-03-03T12:38:59.763Z,10.84
2019-03-03T12:39:59.746Z,10.84
2019-03-03T12:40:59.724Z,10.92
2019-03-03T12:41:59.710Z,10.94
2019-03-03T12:42:59.681Z,10.89
2019-03-03T12:43:59.666Z,10.89
2019-03-03T12:44:59.651Z,10.85
2019-03-03T12:45:59.623Z,10.91
2019-03-03T12:46:59.605Z,10.92
2019-03-03T12:47:59.586Z,10.92
2019-03-03T12:48:59.563Z,10.99
2019-03-03T12:49:59.542Z,11.03
2019-03-03T12:50:59.533Z,11.03
2019-03-03T12:51:59.508Z,10.94
2019-03-03T12:52:59.482Z,11.03
2019-03-03T12:53:59.467Z,11.00
2019-03-03T12:54:59.447Z,11.00
2019-03-03T12:55:59.428Z,11.03
2019-03-03T12:56:59.403Z,11.03
2019-03-03T12:57:59.383Z,11.02
2019-03-03T12:58:59.368Z,11.00
2019-03-03T12:59:59.347Z,11.03
2019-03-03T13:00:59.333Z,11.04
2019-03-03T13:01:59.306Z,11.10
2019-03-03T13:02:59.284Z,11.04
2019-03-03T13:03:59.265Z,11.07
2019-03-03T13:04:59.249Z,11.17
2019-03-03T13:05:59.222Z,11.14
2019-03-03T13:06:59.207Z,11.15